Weather observations for the past three days for
Glasgow, Glasgow Municipal Airport
Imperial (Metric)
Date Time (cdt) Wind (mph) Vis. (mi.) Weather Sky Cond. Temperature (ºF) Relative Humidity Wind Chill (°F) Heat Index (°F) Pressure Precipitation (in)
Air Dwpt 6 hour altimeter (in) sea level (mb) 1 hr 3 hr 6 hr
Max. Min.
09 06:35 S 6 10.00 Overcast BKN065 OVC070 55.9 51.3 84% 29.81 0.0
09 06:15 S 3 10.00 Mostly Cloudy BKN070 BKN080 BKN110 55.8 51.3 85% 29.81 0.0
09 05:55 S 5 10.00 Light Rain SCT060 SCT090 BKN110 55.8 50.9 84% 29.81 0.0
09 05:35 S 5 10.00 Overcast SCT090 OVC110 56.3 50.9 82% 29.8 0.0
09 05:15 S 3 10.00 Overcast OVC100 56.3 50.4 81% 29.8 0.0
09 04:55 S 3 10.00 Mostly Cloudy BKN110 56.3 50.4 81% 29.8 0.0
09 04:35 Calm 10.00 Fair CLR 56.3 50.2 80% 29.81 0.0
09 04:15 Calm 10.00 Partly Cloudy SCT055 57.4 50.4 78% 29.82 0.0
09 03:55 SW 5 10.00 Mostly Cloudy BKN055 BKN120 56.5 50.5 81% 29.84 0.0
09 03:35 S 3 10.00 Fair CLR 57.2 50 77% 29.83 0.0
09 02:55 SW 3 10.00 Partly Cloudy SCT120 56.8 49.1 75% 29.83 0.0
09 02:35 S 3 10.00 Fair CLR 57.4 48.4 72% 29.83 0.0
09 02:15 SW 5 10.00 Fair CLR 57.7 48.2 71% 29.83 0.0
09 01:55 S 5 10.00 Fair CLR 57.7 47.3 68% 29.83 0.0
09 01:35 SW 6 10.00 Fair CLR 58.1 46.8 66% 29.84 0.0
09 01:15 SW 6 10.00 Fair CLR 58.3 46.2 64% 29.84 0.0
09 00:55 S 6 10.00 Fair CLR 58.5 45.7 68.7 51.3 63% 29.85 0.0
09 00:35 S 5 10.00 Fair CLR 58.1 45.1 62% 29.85 0.0
09 00:15 SW 7 10.00 Fair CLR 58.1 44.8 61% 29.85 0.0
08 23:55 SW 6 10.00 Fair CLR 57.7 44.6 62% 29.85 0.0
08 23:35 SW 7 10.00 Fair CLR 56.1 44.6 65% 29.85 0.0
08 23:15 SW 6 10.00 Fair CLR 57.2 44.2 62% 29.85 0.0
08 22:55 S 5 10.00 Fair CLR 54.5 44.6 69% 29.85 0.0
08 22:35 Calm 10.00 Fair CLR 52 46.9 83% 29.85 0.0
08 22:15 Calm 10.00 Fair CLR 52.7 46.8 80% 29.86 0.0
08 21:55 Calm 10.00 Fair CLR 54.3 46.4 75% 29.86 0.0
08 21:35 Calm 10.00 Fair CLR 55 46 72% 29.86 0.0
08 21:15 Calm 10.00 Partly Cloudy SCT120 57.6 45 63% 29.86 0.0
08 20:55 Calm 10.00 Overcast OVC120 57.4 46.4 67% 29.86 0.0
08 20:35 Calm 10.00 Partly Cloudy SCT120 58.8 45.3 61% 29.86 0.0
08 20:15 Calm 10.00 Fair CLR 61.2 44.1 54% 29.85 0.0
08 19:35 Calm 10.00 Fair CLR 63.7 43.9 49% 29.86 0.0
08 19:15 Calm 10.00 Fair CLR 67.3 42.1 40% 29.86 0.0
08 18:55 S 3 10.00 Fair CLR 68.9 41.2 71.8 68 37% 29.87 0.0
08 18:35 SW 8 10.00 Fair CLR 69.8 41.2 35% 29.88 0.0
08 18:15 S 6 10.00 Fair CLR 70.5 40.8 34% 29.88 0.0
08 17:55 SW 7 10.00 Fair CLR 70.7 41.7 35% 29.88 0.0
08 17:15 SW 7 10.00 Fair CLR 71.1 41.2 34% 29.88 0.0
08 16:55 SW 8 10.00 Fair CLR 71.4 41.4 34% 29.88 0.0
08 16:35 SW 9 10.00 Fair CLR 71.6 41.2 33% 29.89 0.0
08 16:15 SW 12 10.00 Fair CLR 70.9 40.8 34% 29.89 0.0
08 15:55 SW 9 G 16 10.00 Fair CLR 71.1 41.9 35% 29.9 0.0
08 15:35 SW 12 10.00 Fair CLR 71.2 41.9 35% 29.9 0.0
08 15:15 W 6 10.00 Fair CLR 70.5 40.6 34% 29.91 0.0
08 14:55 W 9 10.00 Fair CLR 70.5 41.5 35% 29.92 0.0
08 14:35 S 9 10.00 Fair CLR 70.3 40.5 34% 29.93 0.0
08 13:55 S 12 10.00 Fair CLR 69.4 40.5 35% 29.94 0.0
08 13:35 S 9 10.00 Fair CLR 69.1 40.3 35% 29.95 0.0
08 13:15 S 8 10.00 Fair CLR 68.4 40.6 37% 29.96 0.0
08 12:55 S 7 10.00 Fair CLR 68.2 40.8 68.2 41.7 37% 29.96 0.0
08 12:35 S 9 10.00 Fair CLR 68.2 43 40% 29.98 0.0
08 12:15 SE 9 10.00 Fair CLR 67.1 41.7 40% 29.99 0.0
08 11:55 SE 6 10.00 Fair CLR 66.6 41.5 40% 30.01 0.0
08 11:35 S 6 10.00 Fair CLR 65.8 41 40% 30.02 0.0
08 11:15 S 7 10.00 Fair CLR 65.1 40.5 41% 30.03 0.0
08 10:55 S 8 10.00 Fair CLR 64.6 39.7 40% 30.03 0.0
08 10:35 S 7 10.00 Fair CLR 63.9 39.7 41% 30.04 0.0
08 10:15 S 7 10.00 Fair CLR 63.1 41.2 45% 30.04 0.0
08 09:55 S 5 10.00 Fair CLR 62.1 41.4 47% 30.04 0.0
08 09:35 S 9 10.00 Fair CLR 61 42.6 51% 30.04 0.0
08 09:15 S 8 10.00 Fair CLR 59.4 41.2 51% 30.05 0.0
08 08:55 S 8 10.00 Fair CLR 58.1 42.4 56% 30.05 0.0
08 08:15 Calm 10.00 Fair CLR 52.7 43.3 71% 30.05 0.0
08 07:35 Calm 10.00 Fair CLR 46.2 43 89% 30.05 0.0
08 07:15 Calm 10.00 Fair CLR 43.9 41.5 92% 30.04 0.0
08 06:55 Calm 10.00 Fair CLR 41.4 41.4 41.4 36.9 100% 30.04 0.0
08 06:35 Calm 10.00 Fair CLR 38.8 38.8 100% 30.04 0.0
08 06:15 Calm 10.00 Fair CLR 37.4 37.4 100% 30.03 0.0
08 05:55 Calm 10.00 Fair CLR 37.4 37.4 100% 30.03 0.0
08 05:35 Calm 10.00 Fair CLR 37.9 37.9 100% 30.02 0.0
08 05:15 Calm 10.00 Fair CLR 36.9 36.9 100% 30.02 0.0
08 04:55 Calm 10.00 Fair CLR 37.6 37.6 100% 30.02 0.0
08 04:35 Calm 10.00 Fair CLR 38.1 38.1 100% 30.02 0.0
08 04:15 Calm 3.00 Fog/Mist CLR 38.1 38.1 100% 30.02 0.0
08 03:55 Calm 10.00 Fair CLR 39 39 100% 30.01 0.0
08 03:35 Calm 10.00 Fair CLR 38.7 38.7 100% 30.02 0.0
08 03:15 Calm 10.00 Fair CLR 39 39 100% 30.02 0.0
08 02:35 Calm 10.00 Fair CLR 39.4 39.4 100% 30.02 0.0
08 02:15 Calm 10.00 Fair CLR 39.6 39.6 100% 30.02 0.0
08 01:55 Calm 10.00 Fair CLR 40.5 40.5 100% 30.03 0.0
08 01:35 Calm 10.00 Fair CLR 40.6 40.6 100% 30.02 0.0
08 01:15 Calm 10.00 Fair CLR 40.3 40.3 100% 30.03 0.0
08 00:55 Calm 10.00 Fair CLR 41.2 41.2 60.8 41.2 100% 30.03 0.0
08 00:35 Calm 10.00 Fair CLR 41.9 41.9 100% 30.03 0.0
08 00:15 Calm 10.00 Fair CLR 42.4 42.1 99% 30.03 0.0
07 23:55 Calm 10.00 Fair CLR 42.4 42.3 99% 30.04 0.0
07 23:35 Calm 10.00 Fair CLR 43.2 41.7 95% 30.04 0.0
07 23:15 Calm 10.00 Fair CLR 42.6 41.7 97% 30.04 0.0
07 22:55 Calm 10.00 Fair CLR 43.5 43 98% 30.03 0.0
07 22:35 Calm 10.00 Fair CLR 43.5 42.6 97% 30.03 0.0
07 21:55 Calm 10.00 Fair CLR 45.7 42.3 88% 30.02 0.0
07 21:35 Calm 10.00 Fair CLR 46.2 40.8 82% 30.03 0.0
07 21:15 Calm 10.00 Fair CLR 47.8 40.5 76% 30.02 0.0
07 20:55 Calm 10.00 Fair CLR 48.7 41 75% 30.01 0.0
07 20:35 Calm 10.00 Fair CLR 49.6 39.9 69% 30.01 0.0
07 20:15 Calm 10.00 Fair CLR 51.8 38.8 61% 30 0.0
07 19:55 Calm 10.00 Fair CLR 53.4 38.7 58% 29.99 0.0
07 19:35 Calm 10.00 Fair CLR 55.8 38.3 52% 29.98 0.0
07 19:15 Calm 10.00 Fair CLR 59.2 36.7 43% 29.98 0.0
07 18:55 Calm 10.00 Fair CLR 60.4 37.9 64.2 60.4 43% 29.97 0.0
07 18:35 W 5 10.00 Fair CLR 61.9 34.2 36% 29.97 0.0
07 18:15 W 5 10.00 Fair CLR 62.6 34.3 35% 29.97 0.0
07 17:55 N 3 10.00 Fair CLR 62.8 34 34% 29.98 0.0
07 17:35 W 6 10.00 Fair CLR 63.5 35.6 36% 29.97 0.0
07 17:15 NW 9 10.00 Fair CLR 64 36.9 37% 29.97 0.0
07 16:55 NW 3 10.00 Fair CLR 63.9 36.7 37% 29.97 0.0
07 16:35 W 9 10.00 Fair CLR 63.9 36.9 37% 29.97 0.0
07 16:15 N 3 10.00 Fair CLR 63.5 36.5 37% 29.97 0.0
07 15:55 N 7 10.00 Fair CLR 63.5 37.6 38% 29.97 0.0
07 15:35 N 5 10.00 Fair CLR 63.7 35.8 36% 29.96 0.0
07 15:15 N 5 10.00 Fair CLR 63 36 37% 29.97 0.0
07 14:35 NW 6 10.00 Fair CLR 62.6 36.3 38% 29.98 0.0
07 14:15 N 8 10.00 Fair CLR 62.4 37 39% 29.98 0.0
07 13:55 NW 7 10.00 Fair CLR 62.2 36.3 38% 29.98 0.0
07 13:35 N 8 G 16 10.00 Fair CLR 62.1 36.7 39% 29.98 0.0
07 13:15 W 7 10.00 Fair CLR 62.1 38.3 42% 29.98 0.0
07 12:55 N 5 10.00 Fair CLR 61.7 38.5 61.7 49.6 42% 29.99 0.0
07 12:15 N 6 10.00 Fair CLR 60.4 36.7 41% 30.01 0.0
07 11:55 NW 6 10.00 Fair CLR 60.1 36.9 42% 30.01 0.0
07 11:35 N 8 10.00 Fair CLR 59.7 37.8 44% 30.02 0.0
07 10:55 N 6 10.00 Fair CLR 58.5 38.5 48% 30.02 0.0
07 10:35 N 7 10.00 Fair CLR 58.3 39.6 50% 30.02 0.0
07 10:15 N 10 10.00 Fair CLR 57.2 39 51% 30.02 0.0
07 09:55 N 7 10.00 Fair CLR 56.7 38.7 51% 30.02 0.0
07 09:35 N 7 10.00 Fair CLR 56.3 38.8 52% 30.02 0.0
07 09:15 NE 9 10.00 Fair CLR 55.2 38.5 53% 30.01 0.0
07 08:55 NE 8 10.00 Fair CLR 54.5 39.7 58% 30.01 0.0
07 08:35 NE 8 10.00 Fair CLR 53.4 39.9 60% 30.01 0.0
07 08:15 NE 7 10.00 Fair CLR 52.5 39.6 62% 30.01 0.0
07 07:55 NE 9 10.00 Fair CLR 51.3 40.1 66% 30.01 0.0
07 07:35 NE 6 10.00 Fair CLR 50.2 40.3 69% 30.01 0.0
07 07:15 N 5 10.00 Fair CLR 49.6 40.6 71% 48 30.01 0.0
07 06:55 N 6 10.00 Fair CLR 49.6 40.5 50.9 46 71% 48 30.01 0.0 0.01
07 06:35 N 3 10.00 Fair CLR 48.4 41 76% 30 0.0
07 05:55 Calm 10.00 Fair CLR 46.2 42.3 86% 29.99 0.0
07 05:35 Calm 10.00 Fair CLR 47.7 41.7 80% 29.98 0.0
07 05:15 Calm 10.00 Fair CLR 47.5 42.1 82% 29.98 0.0
07 04:55 Calm 10.00 Fair CLR 47.8 42.4 82% 29.98 0.0
07 04:35 Calm 10.00 Partly Cloudy SCT110 48.6 42.8 81% 29.98 0.0
07 04:15 Calm 10.00 Mostly Cloudy BKN120 49.3 43 79% 29.97 0.0
07 03:55 Calm 10.00 Mostly Cloudy BKN110 49.3 44.4 83% 29.97 0.0 0.01
07 03:35 Calm 10.00 Overcast OVC110 48.7 45.5 89% 29.97 0.0
07 03:15 Calm 10.00 Mostly Cloudy BKN100 48.7 44.8 86% 29.98 0.0
07 02:55 Calm 10.00 Mostly Cloudy BKN100 49.1 45.5 87% 29.97 0.0
07 02:35 Calm 10.00 Partly Cloudy SCT110 48.9 46.8 92% 29.98 0.0
07 02:15 Calm 10.00 Mostly Cloudy BKN110 48.2 48.2 100% 29.97 0.0
07 01:55 Calm 10.00 Mostly Cloudy BKN110 49.1 48.2 97% 29.96 0.0 0.01
07 01:35 Calm 10.00 Partly Cloudy SCT120 50.7 46.6 86% 29.96 0.0 0.01
07 01:15 Calm 10.00 Partly Cloudy SCT120 50 50 100% 29.97 0.0
07 00:55 Calm 10.00 Mostly Cloudy BKN120 50.9 47.7 55.4 50.2 89% 29.98 0.0
07 00:35 Calm 10.00 Mostly Cloudy BKN120 51.3 47.3 86% 29.98 0.0
07 00:15 Calm 10.00 Partly Cloudy SCT120 50.4 48 92% 29.99 0.0
06 23:35 Calm 10.00 Fair CLR 52.2 47.3 84% 29.98 0.0
06 23:15 Calm 10.00 Fair CLR 52.7 46.8 80% 29.97 0.0
06 22:55 N 5 10.00 Fair CLR 52.5 48.2 85% 29.98 0.0
06 22:35 Calm 10.00 Partly Cloudy SCT040 51.8 50.9 97% 29.98 0.0
06 22:15 Calm 10.00 Mostly Cloudy BKN042 52.5 51.4 96% 29.98 0.0
06 21:55 Calm 10.00 Overcast OVC042 53.1 51.8 96% 29.98 0.0
06 21:35 Calm 10.00 Overcast OVC042 53.2 53.2 100% 29.98 0.0
06 20:55 SW 3 10.00 Partly Cloudy SCT040 53.6 53.6 100% 29.99 0.0
06 20:35 W 3 10.00 Mostly Cloudy BKN042 BKN050 BKN120 53.8 53.8 100% 29.97 0.0
06 20:15 Calm 10.00 Mostly Cloudy SCT042 SCT050 BKN120 54.5 54.5 100% 29.94 0.0
06 19:55 Calm 10.00 Mostly Cloudy SCT039 BKN050 BKN110 54.7 54.5 99% 29.93 0.0
06 19:35 Calm 10.00 Overcast BKN037 BKN050 OVC100 55 55 100% 29.93 0.0
06 19:15 Calm 10.00 Light Rain SCT037 BKN070 OVC100 55.2 55.2 100% 29.92 0.0
06 18:55 Calm 10.00 Rain BKN035 BKN050 OVC090 55.4 55.4 59.9 55.4 100% 29.96 0.0 0.01 0.04
06 18:35 S 5 10.00 Light Rain BKN041 OVC050 56.3 56.3 100% 29.94 0.0 0.01
06 17:55 Calm 10.00 Rain SCT041 BKN050 OVC090 56.5 56.1 99% 29.94 0.0 0.01
06 17:35 Calm 10.00 Light Rain SCT041 BKN050 OVC090 56.5 56.3 99% 29.94 0.0
06 17:15 SW 3 10.00 Light Rain BKN037 OVC045 56.7 56.5 99% 29.93 0.0
06 16:55 W 5 10.00 Light Rain BKN035 OVC045 56.8 56.1 97% 29.95 0.0 0.02
06 16:35 Calm 10.00 Light Rain BKN033 OVC045 57.4 55.2 93% 29.91 0.0 0.01
06 16:15 Calm 10.00 Light Rain OVC033 58.1 51.4 79% 29.93 0.0
06 15:55 Calm 10.00 Light Rain OVC033 57.6 53.2 86% 29.93 0.0
06 15:35 Calm 10.00 Light Rain OVC031 57.6 51.3 80% 29.94 0.0
06 15:15 N 3 10.00 Light Rain OVC029 58.6 50 73% 29.92 0.0
06 14:55 N 3 10.00 Light Rain OVC029 59 48.9 69% 29.93 0.0
06 14:35 Calm 10.00 Overcast OVC029 59.9 48.9 67% 29.94 0.0
06 14:15 Calm 10.00 Overcast OVC027 59 50.9 75% 29.95 0.0
06 13:55 W 3 10.00 Overcast OVC027 59 51.3 76% 29.95 0.0
06 13:35 Calm 10.00 Overcast OVC027 58.6 50.7 75% 29.94 0.0
06 13:15 Calm 10.00 Overcast BKN024 OVC032 58.1 50.9 77% 29.93 0.0
06 12:55 Calm 10.00 Overcast SCT013 BKN022 OVC032 56.3 50 56.5 50 80% 29.93 0.0 0.01
06 12:35 Calm 10.00 Overcast SCT013 OVC032 56.3 50.5 81% 29.93 0.0
06 12:15 Calm 10.00 Overcast SCT013 OVC032 54.7 49.6 83% 29.94 0.0
06 11:55 Calm 10.00 Overcast BKN011 OVC032 53.8 49.3 85% 29.94 0.0
06 11:35 NW 5 10.00 Overcast BKN009 OVC013 52.9 50.5 92% 29.95 0.0
06 11:15 NE 3 10.00 Overcast OVC007 51.6 50 94% 29.95 0.0
06 10:55 N 5 10.00 Overcast OVC007 50.9 49.3 94% 29.93 0.0
06 10:35 NE 6 10.00 Overcast OVC007 50.9 49.8 96% 29.93 0.0
06 10:15 NE 6 10.00 Overcast OVC007 50.4 50 99% 29.92 0.0
06 09:55 N 6 10.00 Overcast OVC007 50 50 100% 48 29.92 0.0 0.01
06 09:35 NW 6 10.00 Overcast OVC007 50 50 100% 48 29.92 0.0
06 09:15 N 8 10.00 Overcast OVC009 50.2 50.2 100% 29.91 0.0
06 08:55 N 5 10.00 Rain OVC011 50.2 50 99% 29.9 0.0
06 08:35 N 5 10.00 Overcast SCT006 BKN013 OVC020 50.4 49.8 98% 29.9 0.0
06 08:15 N 5 10.00 Overcast OVC008 50.2 50.2 100% 29.9 0.0
06 07:55 N 5 10.00 Overcast BKN008 OVC012 50.4 50.4 100% 29.89 0.0 0.01
06 07:35 N 7 10.00 Light Rain OVC008 50.9 50.9 100% 29.88 0.0 0.01
06 07:15 N 6 10.00 Overcast BKN008 OVC019 51.1 51.1 100% 29.87 0.0 0.01
06 06:55 N 5 10.00 Rain SCT006 SCT010 OVC019 50.9 50.9 63.9 50.5 100% 29.87 0.0 0.39 0.98
Date Time (cdt) Wind (mph) Vis. (mi.) Weather Sky Cond. Air Dwpt Max. Min. Relative Humidity Wind Chill (°F) Heat Index (°F) altimeter (in) sea level (mb) 1 hr 3 hr 6 hr
6 hour
Temperature (ºF) Pressure Precipitation (in)